createdAt,value
2022-08-25T00:00:54.844Z,4.90
2022-08-25T00:03:41.507Z,4.50
2022-08-25T00:06:29.957Z,4.95
2022-08-25T00:09:19.763Z,4.67
2022-08-25T00:12:06.079Z,4.50
2022-08-25T00:14:50.804Z,4.43
2022-08-25T00:17:36.279Z,4.60
2022-08-25T00:20:22.431Z,4.70
2022-08-25T00:23:07.542Z,4.60
2022-08-25T00:25:53.462Z,4.75
2022-08-25T00:28:39.691Z,4.35
2022-08-25T00:31:37.755Z,4.13
2022-08-25T00:34:29.700Z,4.45
2022-08-25T00:37:16.236Z,4.63
2022-08-25T00:40:01.921Z,4.85
2022-08-25T00:42:47.416Z,4.82
2022-08-25T00:45:33.772Z,4.80
2022-08-25T00:48:18.926Z,5.20
2022-08-25T00:51:05.250Z,4.60
2022-08-25T00:53:51.243Z,4.93
2022-08-25T00:56:36.682Z,5.38
2022-08-25T00:59:23.418Z,5.25
2022-08-25T01:02:11.397Z,4.55
2022-08-25T01:04:59.643Z,4.63
2022-08-25T01:07:45.990Z,4.90
2022-08-25T01:10:31.633Z,4.70
2022-08-25T01:13:23.869Z,4.57
2022-08-25T01:16:09.421Z,6.35
2022-08-25T01:18:57.791Z,5.00
2022-08-25T01:21:49.298Z,4.50
2022-08-25T01:24:41.357Z,4.78
2022-08-25T01:27:26.809Z,4.72
2022-08-25T01:30:12.594Z,4.40
2022-08-25T01:32:57.830Z,4.70
2022-08-25T01:35:44.215Z,4.55
2022-08-25T01:38:29.627Z,4.75
2022-08-25T01:41:41.281Z,5.00
2022-08-25T01:44:26.322Z,4.57
2022-08-25T01:47:12.534Z,4.40
2022-08-25T01:49:57.850Z,5.10
2022-08-25T01:52:55.611Z,5.00
2022-08-25T01:55:54.228Z,5.20
2022-08-25T01:58:42.493Z,4.95
2022-08-25T02:01:27.686Z,4.57
2022-08-25T02:04:12.787Z,4.68
2022-08-25T02:07:03.561Z,4.70
2022-08-25T02:09:48.467Z,4.78
2022-08-25T02:12:34.251Z,4.88
2022-08-25T02:15:19.858Z,4.80
2022-08-25T02:18:05.277Z,5.20
2022-08-25T02:20:50.394Z,4.72
2022-08-25T02:23:36.074Z,5.15
2022-08-25T02:26:21.188Z,5.30
2022-08-25T02:29:07.444Z,4.87
2022-08-25T02:31:52.893Z,5.15
2022-08-25T02:34:39.875Z,4.80
2022-08-25T02:37:25.083Z,5.05
2022-08-25T02:40:11.064Z,5.07
2022-08-25T02:42:57.392Z,5.53
2022-08-25T02:45:42.861Z,5.25
2022-08-25T02:48:28.555Z,4.97
2022-08-25T02:51:14.531Z,4.38
2022-08-25T02:54:04.722Z,5.32
2022-08-25T02:56:49.847Z,4.87
2022-08-25T02:59:35.931Z,5.30
2022-08-25T03:02:21.359Z,5.13
2022-08-25T03:05:07.972Z,4.95
2022-08-25T03:07:54.021Z,5.03
2022-08-25T03:10:39.531Z,4.90
2022-08-25T03:13:24.620Z,4.97
2022-08-25T03:16:11.446Z,5.53
2022-08-25T03:18:58.208Z,4.93
2022-08-25T03:21:43.818Z,5.85
2022-08-25T03:24:28.977Z,4.93
2022-08-25T03:27:13.802Z,5.32
2022-08-25T03:29:58.826Z,4.57
2022-08-25T03:32:43.900Z,5.13
2022-08-25T03:35:29.981Z,5.20
2022-08-25T03:38:16.972Z,5.10
2022-08-25T03:41:02.243Z,5.20
2022-08-25T03:43:48.746Z,5.38
2022-08-25T03:46:38.865Z,5.38
2022-08-25T03:49:24.434Z,5.13
2022-08-25T03:52:09.794Z,5.30
2022-08-25T03:54:55.239Z,5.25
2022-08-25T03:57:40.404Z,5.95
2022-08-25T04:00:25.216Z,6.00
2022-08-25T04:03:10.246Z,5.32
2022-08-25T04:05:55.445Z,5.97
2022-08-25T04:08:41.203Z,5.40
2022-08-25T04:11:27.843Z,5.60
2022-08-25T04:14:15.830Z,5.65
2022-08-25T04:17:01.751Z,5.40
2022-08-25T04:19:46.964Z,5.37
2022-08-25T04:22:32.183Z,5.55
2022-08-25T04:25:21.705Z,5.50
2022-08-25T04:28:07.046Z,6.13
2022-08-25T04:30:52.434Z,6.18
2022-08-25T04:33:38.887Z,5.60
2022-08-25T04:36:24.322Z,5.55
2022-08-25T04:39:09.975Z,5.63
2022-08-25T04:41:56.530Z,5.57
2022-08-25T04:44:41.912Z,5.80
2022-08-25T04:47:27.713Z,5.77
2022-08-25T04:50:14.023Z,6.10
2022-08-25T04:52:59.397Z,5.65
2022-08-25T04:55:46.523Z,5.95
2022-08-25T04:58:32.706Z,5.47
2022-08-25T05:01:20.152Z,5.43
2022-08-25T05:04:07.703Z,6.25
2022-08-25T05:06:52.883Z,6.18
2022-08-25T05:09:37.872Z,5.90
2022-08-25T05:12:22.912Z,6.35
2022-08-25T05:15:27.298Z,5.83
2022-08-25T05:18:12.681Z,6.22
2022-08-25T05:21:02.654Z,5.75
2022-08-25T05:23:48.787Z,6.40
2022-08-25T05:26:34.963Z,6.22
2022-08-25T05:29:21.450Z,6.50
2022-08-25T05:32:07.004Z,6.38
2022-08-25T05:34:52.039Z,5.88
2022-08-25T05:37:38.005Z,6.20
2022-08-25T05:40:23.849Z,6.22
2022-08-25T05:43:10.383Z,6.33
2022-08-25T05:45:57.839Z,6.65
2022-08-25T05:48:43.361Z,6.22
2022-08-25T05:51:28.911Z,6.05
2022-08-25T05:54:14.431Z,6.78
2022-08-25T05:56:59.346Z,7.23
2022-08-25T05:59:44.874Z,6.18
2022-08-25T06:02:43.972Z,6.25
2022-08-25T06:05:29.648Z,5.78
2022-08-25T06:08:16.041Z,6.50
2022-08-25T06:11:01.331Z,5.97
2022-08-25T06:13:46.446Z,6.43
2022-08-25T06:16:31.759Z,6.22
2022-08-25T06:19:48.073Z,7.15
2022-08-25T06:22:41.004Z,7.60
2022-08-25T06:25:32.855Z,7.23
2022-08-25T06:28:19.479Z,7.75
2022-08-25T06:31:05.804Z,7.10
2022-08-25T06:34:08.312Z,8.07
2022-08-25T06:36:56.734Z,7.95
2022-08-25T06:39:41.936Z,8.27
2022-08-25T06:42:27.365Z,8.55
2022-08-25T06:45:13.046Z,8.52
2022-08-25T06:47:59.861Z,8.00
2022-08-25T06:50:47.912Z,7.97
2022-08-25T06:53:33.614Z,7.90
2022-08-25T06:56:22.509Z,7.88
2022-08-25T06:59:10.332Z,8.60
2022-08-25T07:01:55.495Z,7.22
2022-08-25T07:04:41.151Z,7.72
2022-08-25T07:07:26.086Z,7.63
2022-08-25T07:10:29.034Z,7.60
2022-08-25T07:13:17.414Z,7.22
2022-08-25T07:16:02.953Z,7.68
2022-08-25T07:18:48.665Z,7.57
2022-08-25T07:21:36.160Z,7.37
2022-08-25T07:24:22.607Z,7.78
2022-08-25T07:27:07.783Z,6.88
2022-08-25T07:29:54.057Z,8.20
2022-08-25T07:32:42.095Z,8.30
2022-08-25T07:35:28.144Z,7.53
2022-08-25T07:38:23.288Z,7.47
2022-08-25T07:41:08.556Z,7.60
2022-08-25T07:43:53.719Z,7.72
2022-08-25T07:46:39.790Z,7.45
2022-08-25T07:49:34.996Z,7.23
2022-08-25T07:52:21.634Z,6.45
2022-08-25T07:55:08.347Z,7.53
2022-08-25T07:57:57.366Z,6.72
2022-08-25T08:00:42.786Z,6.38
2022-08-25T08:03:45.333Z,6.10
2022-08-25T08:06:35.238Z,6.30
2022-08-25T08:09:20.911Z,6.63
2022-08-25T08:12:06.887Z,7.05
2022-08-25T08:14:53.820Z,6.13
2022-08-25T08:17:40.056Z,6.60
2022-08-25T08:20:25.557Z,6.38
2022-08-25T08:23:11.875Z,6.45
2022-08-25T08:25:56.875Z,6.10
2022-08-25T08:28:42.840Z,6.30
2022-08-25T08:31:30.500Z,5.93
2022-08-25T08:34:18.320Z,6.38
2022-08-25T08:37:03.876Z,6.55
2022-08-25T08:39:49.215Z,6.43
2022-08-25T08:42:50.475Z,6.85
2022-08-25T08:45:40.564Z,6.30
2022-08-25T08:48:52.005Z,6.07
2022-08-25T08:51:48.199Z,6.85
2022-08-25T08:54:37.906Z,6.63
2022-08-25T08:57:29.190Z,6.55
2022-08-25T09:00:15.708Z,6.17
2022-08-25T09:03:12.028Z,6.63
2022-08-25T09:06:03.553Z,6.35
2022-08-25T09:08:59.517Z,6.65
2022-08-25T09:12:03.679Z,5.78
2022-08-25T09:16:03.179Z,6.30
2022-08-25T09:18:58.874Z,6.35
2022-08-25T09:21:57.261Z,6.40
2022-08-25T09:24:56.606Z,6.55
2022-08-25T09:27:49.408Z,6.47
2022-08-25T09:30:51.601Z,6.03
2022-08-25T09:33:37.050Z,5.85
2022-08-25T09:36:22.145Z,6.00
2022-08-25T09:39:08.191Z,5.80
2022-08-25T09:42:00.233Z,6.50
2022-08-25T09:44:47.604Z,5.83
2022-08-25T09:47:43.690Z,6.28
2022-08-25T09:50:35.042Z,6.30
2022-08-25T09:53:22.415Z,5.93
2022-08-25T09:56:09.964Z,6.57
2022-08-25T09:59:17.028Z,6.13
2022-08-25T10:02:20.823Z,5.40
2022-08-25T10:05:18.859Z,6.10
2022-08-25T10:08:24.765Z,5.57
2022-08-25T10:11:15.123Z,5.72
2022-08-25T10:14:13.430Z,5.90
2022-08-25T10:17:14.884Z,5.80
2022-08-25T10:20:09.519Z,5.88
2022-08-25T10:23:14.417Z,5.32
2022-08-25T10:26:05.222Z,5.35
2022-08-25T10:29:11.932Z,5.87
2022-08-25T10:32:07.065Z,6.03
2022-08-25T10:34:59.606Z,5.80
2022-08-25T10:38:04.259Z,5.80
2022-08-25T10:40:57.079Z,5.53
2022-08-25T10:43:54.818Z,5.63
2022-08-25T10:47:05.846Z,5.75
2022-08-25T10:49:56.312Z,5.93
2022-08-25T10:53:04.633Z,5.60
2022-08-25T10:56:15.214Z,5.35
2022-08-25T10:59:18.842Z,5.33
2022-08-25T11:02:25.700Z,5.57
2022-08-25T11:05:48.929Z,5.28
2022-08-25T11:08:49.619Z,5.53
2022-08-25T11:11:37.886Z,5.32
2022-08-25T11:14:34.458Z,5.37
2022-08-25T11:17:25.422Z,5.00
2022-08-25T11:20:26.597Z,5.10
2022-08-25T11:23:24.847Z,5.35
2022-08-25T11:26:13.288Z,5.30
2022-08-25T11:29:05.507Z,5.27
2022-08-25T11:31:59.489Z,5.25
2022-08-25T11:34:46.458Z,5.50
2022-08-25T11:37:33.572Z,5.20
2022-08-25T11:40:44.343Z,5.30
2022-08-25T11:44:09.668Z,5.10
2022-08-25T11:47:00.700Z,5.25
2022-08-25T11:49:52.727Z,4.93
2022-08-25T11:52:46.806Z,5.03
2022-08-25T11:55:35.056Z,5.28
2022-08-25T11:58:34.205Z,4.40
2022-08-25T12:01:38.164Z,4.70
2022-08-25T12:04:56.410Z,5.30
2022-08-25T12:08:07.444Z,4.80
2022-08-25T12:11:11.083Z,5.15
2022-08-25T12:14:13.895Z,4.77
2022-08-25T12:17:07.033Z,4.57
2022-08-25T12:19:58.874Z,5.10
2022-08-25T12:22:55.199Z,5.10
2022-08-25T12:25:47.050Z,5.45
2022-08-25T12:28:54.596Z,4.90
2022-08-25T12:31:51.015Z,5.20
2022-08-25T12:35:04.315Z,5.05
2022-08-25T12:37:54.120Z,4.97
2022-08-25T12:40:48.059Z,5.10
2022-08-25T12:43:38.022Z,5.07
2022-08-25T12:46:23.997Z,4.90
2022-08-25T12:49:15.346Z,5.07
2022-08-25T12:52:26.078Z,4.70
2022-08-25T12:55:13.391Z,4.93
2022-08-25T12:58:01.950Z,5.13
2022-08-25T13:01:02.258Z,5.28
2022-08-25T13:04:20.348Z,5.40
2022-08-25T13:07:31.380Z,5.10
2022-08-25T13:10:39.704Z,5.03
2022-08-25T13:13:57.459Z,4.83
2022-08-25T13:16:52.453Z,5.50
2022-08-25T13:19:38.527Z,5.68
2022-08-25T13:22:26.303Z,5.05
2022-08-25T13:25:17.934Z,5.72
2022-08-25T13:28:24.868Z,5.40
2022-08-25T13:31:22.157Z,5.35
2022-08-25T13:34:21.974Z,5.43
2022-08-25T13:37:29.545Z,6.00
2022-08-25T13:40:26.702Z,6.70
2022-08-25T13:43:14.360Z,6.10
2022-08-25T13:46:00.841Z,6.43
2022-08-25T13:48:49.475Z,7.32
2022-08-25T13:51:36.456Z,6.45
2022-08-25T13:54:29.345Z,7.50
2022-08-25T13:57:23.421Z,6.10
2022-08-25T14:00:11.933Z,7.13
2022-08-25T14:02:58.517Z,6.68
2022-08-25T14:05:44.326Z,6.78
2022-08-25T14:08:39.667Z,6.72
2022-08-25T14:11:30.943Z,6.50
2022-08-25T14:14:18.962Z,6.63
2022-08-25T14:17:28.815Z,6.53
2022-08-25T14:20:28.689Z,6.47
2022-08-25T14:23:19.016Z,6.30
2022-08-25T14:26:04.714Z,5.90
2022-08-25T14:28:52.026Z,6.30
2022-08-25T14:31:40.449Z,6.43
2022-08-25T14:34:29.431Z,6.68
2022-08-25T14:37:17.787Z,6.63
2022-08-25T14:40:03.951Z,6.50
2022-08-25T14:42:49.722Z,7.15
2022-08-25T14:45:37.766Z,6.72
2022-08-25T14:48:56.530Z,6.65
2022-08-25T14:51:43.447Z,6.55
2022-08-25T14:54:28.527Z,6.40
2022-08-25T14:57:14.624Z,6.78
2022-08-25T15:00:00.576Z,6.13
2022-08-25T15:02:49.307Z,6.57
2022-08-25T15:05:34.631Z,6.60
2022-08-25T15:08:38.251Z,6.37
2022-08-25T15:11:23.783Z,7.07
2022-08-25T15:14:10.990Z,7.05
2022-08-25T15:16:57.763Z,6.72
2022-08-25T15:19:43.277Z,7.68
2022-08-25T15:22:30.779Z,6.53
2022-08-25T15:25:16.034Z,7.30
2022-08-25T15:28:10.205Z,7.18
2022-08-25T15:30:55.247Z,6.75
2022-08-25T15:33:41.087Z,7.75
2022-08-25T15:36:27.047Z,7.47
2022-08-25T15:39:12.902Z,7.65
2022-08-25T15:41:57.820Z,7.70
2022-08-25T15:44:53.173Z,8.52
2022-08-25T15:47:38.627Z,9.68
2022-08-25T15:50:26.850Z,9.90
2022-08-25T15:53:12.147Z,8.38
2022-08-25T15:56:04.724Z,9.52
2022-08-25T15:58:52.630Z,10.15
2022-08-25T16:01:37.851Z,9.10
2022-08-25T16:04:25.304Z,10.27
2022-08-25T16:07:13.314Z,9.90
2022-08-25T16:09:58.855Z,10.30
2022-08-25T16:12:44.059Z,11.18
2022-08-25T16:15:29.448Z,9.82
2022-08-25T16:18:14.463Z,9.97
2022-08-25T16:20:59.929Z,9.80
2022-08-25T16:23:45.890Z,10.57
2022-08-25T16:26:31.759Z,10.80
2022-08-25T16:29:18.052Z,9.85
2022-08-25T16:32:07.315Z,9.40
2022-08-25T16:34:52.335Z,9.25
2022-08-25T16:37:37.693Z,9.77
2022-08-25T16:40:26.221Z,9.93
2022-08-25T16:43:12.334Z,9.90
2022-08-25T16:46:02.718Z,8.53
2022-08-25T16:48:48.669Z,8.60
2022-08-25T16:51:34.018Z,9.77
2022-08-25T16:54:38.245Z,8.57
2022-08-25T16:57:23.879Z,8.57
2022-08-25T17:00:12.903Z,7.77
2022-08-25T17:03:00.292Z,8.25
2022-08-25T17:05:45.309Z,7.38
2022-08-25T17:08:31.576Z,7.57
2022-08-25T17:11:22.987Z,7.63
2022-08-25T17:14:11.161Z,7.43
2022-08-25T17:16:56.310Z,8.15
2022-08-25T17:19:45.467Z,7.53
2022-08-25T17:22:31.375Z,8.07
2022-08-25T17:25:17.395Z,7.30
2022-08-25T17:28:04.959Z,7.33
2022-08-25T17:30:52.068Z,6.20
2022-08-25T17:33:37.864Z,7.22
2022-08-25T17:36:27.054Z,7.15
2022-08-25T17:39:14.223Z,7.43
2022-08-25T17:41:59.358Z,6.63
2022-08-25T17:44:44.828Z,6.65
2022-08-25T17:47:29.995Z,6.90
2022-08-25T17:50:15.419Z,7.22
2022-08-25T17:53:03.647Z,7.88
2022-08-25T17:55:59.087Z,6.67
2022-08-25T17:58:45.128Z,7.22
2022-08-25T18:01:32.376Z,8.07
2022-08-25T18:04:19.486Z,7.22
2022-08-25T18:07:05.546Z,6.50
2022-08-25T18:09:50.689Z,7.13
2022-08-25T18:12:37.216Z,6.70
2022-08-25T18:15:23.015Z,6.55
2022-08-25T18:18:09.304Z,6.55
2022-08-25T18:20:54.993Z,6.43
2022-08-25T18:23:40.463Z,6.77
2022-08-25T18:26:26.187Z,7.10
2022-08-25T18:29:13.003Z,6.57
2022-08-25T18:32:00.406Z,7.10
2022-08-25T18:34:45.636Z,6.95
2022-08-25T18:37:49.789Z,6.40
2022-08-25T18:40:35.122Z,6.50
2022-08-25T18:43:20.438Z,7.18
2022-08-25T18:46:05.946Z,6.63
2022-08-25T18:48:54.100Z,9.45
2022-08-25T18:51:39.366Z,7.90
2022-08-25T18:54:24.860Z,7.05
2022-08-25T18:57:12.190Z,7.32
2022-08-25T18:59:57.719Z,7.90
2022-08-25T19:02:47.809Z,7.38
2022-08-25T19:05:36.114Z,6.80
2022-08-25T19:08:21.798Z,6.85
2022-08-25T19:11:07.390Z,6.85
2022-08-25T19:13:52.539Z,7.10
2022-08-25T19:16:40.441Z,7.25
2022-08-25T19:19:26.170Z,6.73
2022-08-25T19:22:31.747Z,7.00
2022-08-25T19:25:18.772Z,8.10
2022-08-25T19:28:05.683Z,7.03
2022-08-25T19:30:51.067Z,7.55
2022-08-25T19:33:44.768Z,6.87
2022-08-25T19:36:30.988Z,6.68
2022-08-25T19:39:17.602Z,7.22
2022-08-25T19:42:03.205Z,7.20
2022-08-25T19:44:48.788Z,6.80
2022-08-25T19:47:37.409Z,7.30
2022-08-25T19:50:23.261Z,7.30
2022-08-25T19:53:09.042Z,7.57
2022-08-25T19:55:55.218Z,6.82
2022-08-25T19:58:40.973Z,7.15
2022-08-25T20:01:29.118Z,7.17
2022-08-25T20:04:14.407Z,7.05
2022-08-25T20:06:59.808Z,7.50
2022-08-25T20:09:45.199Z,7.03
2022-08-25T20:12:30.590Z,7.68
2022-08-25T20:15:16.875Z,8.23
2022-08-25T20:18:02.029Z,7.95
2022-08-25T20:20:48.185Z,7.53
2022-08-25T20:23:52.530Z,7.53
2022-08-25T20:26:37.890Z,7.28
2022-08-25T20:29:26.390Z,7.47
2022-08-25T20:32:11.751Z,8.02
2022-08-25T20:34:57.156Z,7.55
2022-08-25T20:37:45.328Z,7.40
2022-08-25T20:40:32.672Z,7.88
2022-08-25T20:43:18.103Z,7.83
2022-08-25T20:46:07.101Z,8.02
2022-08-25T20:48:52.480Z,7.72
2022-08-25T20:51:38.510Z,7.75
2022-08-25T20:54:25.486Z,8.30
2022-08-25T20:59:57.700Z,8.05
2022-08-25T21:02:46.171Z,8.20
2022-08-25T21:05:31.643Z,8.18
2022-08-25T21:08:17.283Z,8.00
2022-08-25T21:11:02.693Z,8.10
2022-08-25T21:13:50.012Z,7.80
2022-08-25T21:16:37.749Z,8.25
2022-08-25T21:19:26.645Z,8.15
2022-08-25T21:22:15.584Z,8.10
2022-08-25T21:25:00.953Z,7.87
2022-08-25T21:27:46.031Z,8.10
2022-08-25T21:30:33.551Z,8.18
2022-08-25T21:33:18.663Z,8.15
2022-08-25T21:36:04.403Z,7.75
2022-08-25T21:38:51.163Z,8.70
2022-08-25T21:41:39.385Z,7.65
2022-08-25T21:44:24.558Z,8.63
2022-08-25T21:47:11.033Z,7.75
2022-08-25T21:49:56.513Z,8.30
2022-08-25T21:52:42.453Z,7.83
2022-08-25T21:55:27.915Z,8.18
2022-08-25T21:58:13.008Z,7.80
2022-08-25T22:01:05.047Z,7.78
2022-08-25T22:03:56.154Z,8.35
2022-08-25T22:06:41.283Z,8.13
2022-08-25T22:09:28.613Z,7.78
2022-08-25T22:12:13.525Z,7.85
2022-08-25T22:15:01.180Z,7.78
2022-08-25T22:17:47.934Z,8.40
2022-08-25T22:20:33.624Z,7.70
2022-08-25T22:23:20.162Z,8.00
2022-08-25T22:26:06.051Z,7.38
2022-08-25T22:28:51.644Z,7.63
2022-08-25T22:31:37.163Z,7.93
2022-08-25T22:34:30.525Z,8.10
2022-08-25T22:37:17.972Z,8.05
2022-08-25T22:40:04.002Z,7.78
2022-08-25T22:42:50.534Z,8.27
2022-08-25T22:45:36.011Z,7.95
2022-08-25T22:48:21.453Z,7.70
2022-08-25T22:51:11.097Z,8.32
2022-08-25T22:53:58.330Z,7.72
2022-08-25T22:56:43.643Z,7.80
2022-08-25T22:59:29.191Z,8.25
2022-08-25T23:02:14.728Z,7.73
2022-08-25T23:05:01.810Z,8.15
2022-08-25T23:07:47.411Z,8.32
2022-08-25T23:10:32.666Z,8.45
2022-08-25T23:13:34.418Z,8.20
2022-08-25T23:16:19.926Z,7.87
2022-08-25T23:19:05.683Z,8.10
2022-08-25T23:22:11.050Z,8.27
2022-08-25T23:24:56.785Z,8.13
2022-08-25T23:27:42.327Z,8.80
2022-08-25T23:30:27.863Z,8.17
2022-08-25T23:33:18.810Z,8.20
2022-08-25T23:36:08.270Z,8.10
2022-08-25T23:38:55.880Z,8.68
2022-08-25T23:41:41.704Z,8.10
2022-08-25T23:44:26.937Z,7.97
2022-08-25T23:47:12.361Z,7.75
2022-08-25T23:49:58.690Z,8.52
2022-08-25T23:52:45.118Z,7.80
2022-08-25T23:55:33.561Z,8.52
2022-08-25T23:58:19.598Z,8.43
